Asbury, Illinois
Current Conditions -  °F | °C
As of 12:35 AM on Sunday 28 Dec 2014 (Local Time) from KCUL Reporting Station
Overcast Overcast  
Wind Chill:   Ceiling: 1800
Heat Index:   Visibility: 10mi
Dew Point:   Wind: 10mph
Humidity: 97%   Direction: 320°NW
Pressure: 30.15"   Gusts: NA
Location:  37.8866°N, 88.266°W
Report Text: KCUL 280635Z AUTO 32009KT 10SM SCT012 BKN018 OVC032 04/03 A3015 RMK AO2 T00370033
Loading
Personal Weather Stations






























Interactive Weather Map New forecast layout! Learn more

10-Day Weather Forecast

Advertisements
Track Severe Weather on mobile